Time;durP1;ratioP1;P1;durP2;ratioP2;P2;SDS_P1;SDS_P2;PMS_P1;PMS_P2;Temp;Humidity;BMP_temperature;BMP_pressure;BME280_temperature;BME280_humidity;BME280_pressure;Samples;Min_cycle;Max_cycle;Signal;HPM_P1;HPM_P2
2024/01/07 00:01:49;;;;;;;26.43;12.97;;;5.00;99.90;;;6.80;67.82;97008.16;5070499;28;20515;-52
2024/01/07 00:04:18;;;;;;;31.00;13.87;;;4.90;99.90;;;6.80;67.77;97008.16;5070980;28;20041;-52
2024/01/07 00:06:46;;;;;;;27.00;12.43;;;4.90;99.90;;;6.86;67.21;97012.81;5070989;28;20048;-49
2024/01/07 00:09:16;;;;;;;79.13;18.07;;;5.00;99.90;;;6.87;67.53;97015.31;5069850;28;20053;-48
2024/01/07 00:11:43;;;;;;;65.17;16.37;;;5.10;99.90;;;6.87;66.85;97017.16;5070743;28;20044;-50
2024/01/07 00:14:11;;;;;;;34.57;13.43;;;5.00;99.90;;;6.84;66.83;97014.78;5070838;28;20055;-50
2024/01/07 00:16:40;;;;;;;49.40;16.73;;;4.90;99.90;;;6.85;67.52;97013.81;5071019;28;20039;-49
2024/01/07 00:19:08;;;;;;;39.17;14.10;;;4.90;99.90;;;6.84;67.28;97015.66;5071030;28;20040;-51
2024/01/07 00:21:35;;;;;;;59.80;16.33;;;4.90;99.90;;;6.84;67.57;97017.44;5070723;28;20056;-49
2024/01/07 00:24:03;;;;;;;43.97;14.83;;;5.00;99.90;;;6.73;67.29;97012.38;5070866;28;20048;-50
2024/01/07 00:26:31;;;;;;;48.47;16.80;;;4.90;99.90;;;6.76;67.81;97006.81;5068934;28;20044;-50
2024/01/07 00:28:58;;;;;;;99.33;18.20;;;4.90;99.90;;;6.74;67.71;97017.53;5068930;28;20049;-50
2024/01/07 00:31:26;;;;;;;155.80;26.73;;;4.90;99.90;;;6.73;67.61;97015.88;5068875;28;20060;-50
2024/01/07 00:33:54;;;;;;;91.53;21.07;;;4.80;99.90;;;6.66;67.90;97013.00;5076903;28;20032;-48
2024/01/07 00:36:21;;;;;;;91.53;18.80;;;4.80;99.90;;;6.70;67.11;97018.81;5070512;28;20048;-48
2024/01/07 00:38:49;;;;;;;100.67;19.37;;;4.80;99.90;;;6.70;67.53;97016.19;5070328;28;20508;-49
2024/01/07 00:41:17;;;;;;;170.10;25.20;;;4.80;99.90;;;6.66;67.83;97014.81;5070528;28;20047;-48
2024/01/07 00:43:44;;;;;;;62.00;17.20;;;4.80;99.90;;;6.67;68.03;97014.69;5077071;28;20071;-50
2024/01/07 00:46:12;;;;;;;55.97;16.87;;;4.80;99.90;;;6.71;67.33;97020.50;5070748;28;20515;-49
2024/01/07 00:48:40;;;;;;;120.03;19.40;;;4.90;99.90;;;6.69;67.46;97018.00;5069227;28;20053;-49
2024/01/07 00:51:07;;;;;;;166.80;29.13;;;4.80;99.90;;;6.64;67.96;97008.84;5070488;28;20055;-52
2024/01/07 00:53:37;;;;;;;112.43;22.03;;;4.80;99.90;;;6.60;67.29;97012.78;5068695;28;20047;-48
2024/01/07 00:56:05;;;;;;;109.47;21.53;;;4.70;99.90;;;6.58;67.76;97017.41;5070343;28;20496;-49
2024/01/07 00:58:35;;;;;;;108.27;21.40;;;4.70;99.90;;;6.42;68.58;97024.19;5074646;28;20492;-53
2024/01/07 01:01:03;;;;;;;110.43;23.07;;;4.60;99.90;;;6.47;68.30;97021.91;5072582;28;20052;-51
2024/01/07 01:03:31;;;;;;;95.17;18.27;;;4.60;99.90;;;6.49;68.43;97017.34;5072883;28;20057;-49
2024/01/07 01:05:59;;;;;;;124.53;22.13;;;4.70;99.90;;;6.52;68.41;97013.53;5074273;28;20419;-50
2024/01/07 01:08:27;;;;;;;57.47;21.10;;;4.70;99.90;;;6.55;68.23;97012.41;5081140;28;20044;-49
2024/01/07 01:10:54;;;;;;;73.53;19.67;;;4.70;99.90;;;6.53;68.08;97011.72;5074349;28;20045;-49
2024/01/07 01:13:22;;;;;;;80.87;18.53;;;4.70;99.90;;;6.44;68.37;97016.13;5072296;28;20052;-49
2024/01/07 01:15:50;;;;;;;65.57;19.07;;;4.70;99.90;;;6.37;68.58;97022.97;5072747;28;20045;-52
2024/01/07 01:18:17;;;;;;;60.73;19.37;;;4.60;99.90;;;6.26;69.17;97024.88;5074339;28;20040;-52
2024/01/07 01:20:45;;;;;;;81.17;23.17;;;4.50;99.90;;;6.17;69.45;97027.56;5074175;28;20574;-52
2024/01/07 01:23:13;;;;;;;50.27;18.47;;;4.50;99.90;;;6.18;69.35;97029.22;5072204;28;20492;-51
2024/01/07 01:25:40;;;;;;;49.90;17.67;;;4.50;99.90;;;6.27;68.68;97026.50;5070843;28;20060;-54
2024/01/07 01:28:09;;;;;;;40.07;16.37;;;4.50;99.90;;;6.24;69.27;97033.91;5072250;28;20044;-50
2024/01/07 01:30:37;;;;;;;52.67;21.17;;;4.50;99.90;;;6.17;69.32;97036.31;5072489;28;20055;-52
2024/01/07 01:33:04;;;;;;;40.70;16.47;;;4.50;99.90;;;6.15;69.78;97029.53;5071663;28;20504;-48
2024/01/07 01:35:32;;;;;;;32.93;15.60;;;4.40;99.90;;;6.27;69.12;97034.44;5072287;28;20416;-53
2024/01/07 01:38:00;;;;;;;31.37;16.20;;;4.50;99.90;;;6.39;69.06;97043.00;5074025;28;20063;-48
2024/01/07 01:40:28;;;;;;;34.83;17.10;;;4.60;99.90;;;6.46;68.47;97035.31;5073390;28;20040;-52
2024/01/07 01:42:55;;;;;;;113.70;35.23;;;4.60;99.90;;;6.50;68.86;97045.41;5071880;28;20048;-51
2024/01/07 01:45:23;;;;;;;53.57;22.77;;;4.70;99.90;;;6.57;68.41;97032.44;5071956;28;20044;-51
2024/01/07 01:47:51;;;;;;;51.33;21.50;;;4.80;99.90;;;6.55;68.41;97033.56;5065541;28;20059;-53
2024/01/07 01:50:19;;;;;;;35.83;16.87;;;4.70;99.90;;;6.59;68.18;97038.41;5072847;28;20044;-51
2024/01/07 01:52:48;;;;;;;61.83;23.53;;;4.80;99.90;;;6.63;68.08;97038.91;5055384;28;20048;-52
2024/01/07 01:55:16;;;;;;;31.47;15.53;;;4.80;99.90;;;6.64;67.97;97040.59;5072209;28;20045;-50
2024/01/07 01:57:46;;;;;;;32.40;16.77;;;4.80;99.90;;;6.54;68.41;97043.31;5063458;28;20056;-49
2024/01/07 02:00:14;;;;;;;29.37;14.03;;;4.70;99.90;;;6.57;68.68;97042.16;5063616;28;20051;-49
2024/01/07 02:02:41;;;;;;;36.87;17.87;;;4.70;99.90;;;6.58;68.54;97049.13;5071471;28;20500;-53
2024/01/07 02:05:09;;;;;;;28.67;13.20;;;4.70;99.90;;;6.62;68.37;97043.38;5073511;28;20036;-53
2024/01/07 02:07:37;;;;;;;35.70;16.93;;;4.80;99.90;;;6.66;67.77;97041.28;5070495;28;20503;-50
2024/01/07 02:10:05;;;;;;;23.37;13.57;;;4.80;99.90;;;6.61;67.97;97043.53;5072980;28;20518;-53
2024/01/07 02:12:32;;;;;;;22.20;11.90;;;4.80;99.90;;;6.55;68.17;97044.97;5071845;28;20045;-52
2024/01/07 02:15:00;;;;;;;22.37;12.07;;;4.70;99.90;;;6.63;67.98;97044.22;5073014;28;20387;-53
2024/01/07 02:17:28;;;;;;;22.83;13.47;;;4.80;99.90;;;6.66;68.02;97041.28;5071345;28;20055;-51
2024/01/07 02:19:55;;;;;;;19.93;11.73;;;4.80;99.90;;;6.63;68.11;97042.41;5071063;28;20420;-53
2024/01/07 02:22:23;;;;;;;20.57;12.07;;;4.80;99.90;;;6.58;67.65;97043.84;5071073;28;20060;-52
2024/01/07 02:24:51;;;;;;;20.57;12.37;;;4.80;99.90;;;6.58;68.48;97051.78;5070914;28;20052;-50
2024/01/07 02:27:18;;;;;;;21.10;11.90;;;4.70;99.90;;;6.62;67.57;97055.78;5070535;28;20044;-53
2024/01/07 02:29:46;;;;;;;18.07;10.20;;;4.80;99.90;;;6.60;67.99;97055.94;5071299;28;20044;-52
2024/01/07 02:32:13;;;;;;;21.87;11.33;;;4.80;99.90;;;6.63;67.78;97047.72;5087793;28;20496;-51
2024/01/07 02:34:41;;;;;;;18.17;10.70;;;4.80;99.90;;;6.59;68.29;97053.44;5072317;28;20047;-50
2024/01/07 02:37:09;;;;;;;22.27;11.27;;;4.70;99.90;;;6.60;67.87;97049.81;5072783;28;20047;-53
2024/01/07 02:39:36;;;;;;;20.23;11.90;;;4.70;99.90;;;6.65;68.01;97042.25;5072590;28;20041;-53
2024/01/07 02:42:05;;;;;;;21.30;10.77;;;4.80;99.90;;;6.61;68.17;97043.53;5071763;28;20047;-50
2024/01/07 02:44:32;;;;;;;22.27;12.57;;;4.80;99.90;;;6.64;67.78;97052.00;5054457;28;20381;-53
2024/01/07 02:47:00;;;;;;;18.30;11.20;;;4.80;99.90;;;6.68;67.85;97055.19;5071437;28;20076;-53
2024/01/07 02:49:28;;;;;;;19.73;12.10;;;4.80;99.90;;;6.69;68.05;97047.09;5070776;28;20446;-53
2024/01/07 02:51:56;;;;;;;18.23;10.67;;;4.80;99.90;;;6.72;67.80;97053.06;5064620;28;20052;-49
2024/01/07 02:54:24;;;;;;;19.17;11.07;;;4.90;99.90;;;6.72;67.73;97048.59;5072214;28;20435;-51
2024/01/07 02:56:51;;;;;;;19.30;11.10;;;4.90;99.90;;;6.71;67.47;97044.31;5072507;28;20044;-54
2024/01/07 02:59:19;;;;;;;19.07;11.67;;;4.90;99.90;;;6.72;67.76;97045.94;5072419;28;20036;-54
2024/01/07 03:01:47;;;;;;;20.10;11.17;;;4.90;99.90;;;6.66;67.46;97047.38;5069955;28;20052;-52
2024/01/07 03:04:16;;;;;;;22.20;12.37;;;4.80;99.90;;;6.65;67.47;97048.38;5071822;28;20047;-53
2024/01/07 03:06:43;;;;;;;20.73;10.97;;;4.80;99.90;;;6.70;67.89;97053.22;5072048;28;20044;-53
2024/01/07 03:09:11;;;;;;;21.47;12.33;;;4.80;99.90;;;6.67;67.83;97045.59;5072190;28;20045;-51
2024/01/07 03:11:42;;;;;;;20.60;11.80;;;4.80;99.90;;;6.69;67.62;97051.56;5071635;28;20073;-50
2024/01/07 03:14:12;;;;;;;19.33;11.33;;;4.90;99.90;;;6.76;67.02;97057.06;5071465;28;20051;-50
2024/01/07 03:16:40;;;;;;;21.57;10.83;;;4.90;99.90;;;6.78;67.37;97053.28;5071816;28;20045;-51
2024/01/07 03:19:07;;;;;;;19.97;11.37;;;4.90;99.90;;;6.75;67.58;97053.59;5071135;28;20049;-52
2024/01/07 03:21:35;;;;;;;20.57;11.87;;;4.90;99.90;;;6.77;67.22;97050.81;5071662;28;20051;-52
2024/01/07 03:24:03;;;;;;;18.67;11.30;;;4.90;99.90;;;6.78;67.20;97055.91;5071806;28;20496;-52
2024/01/07 03:26:33;;;;;;;20.67;11.63;;;4.90;99.90;;;6.78;67.53;97061.22;5071590;28;20422;-51
2024/01/07 03:29:01;;;;;;;18.20;10.80;;;4.90;99.90;;;6.79;67.11;97057.59;5063524;28;20044;-52
2024/01/07 03:31:29;;;;;;;22.43;11.43;;;4.90;99.90;;;6.77;67.23;97059.56;5070348;28;20049;-53
2024/01/07 03:33:57;;;;;;;20.33;11.77;;;4.90;99.90;;;6.80;67.05;97069.00;5071568;28;20048;-53
2024/01/07 03:36:25;;;;;;;22.70;12.53;;;4.90;99.90;;;6.81;67.52;97071.50;5071623;28;20047;-51
2024/01/07 03:38:54;;;;;;;19.43;10.97;;;4.90;99.90;;;6.83;67.02;97066.06;5053315;28;20048;-52
2024/01/07 03:41:21;;;;;;;18.23;10.87;;;4.90;99.90;;;6.81;67.21;97068.84;5071293;28;20041;-51
2024/01/07 03:43:50;;;;;;;23.07;11.97;;;4.90;99.90;;;6.83;67.12;97080.13;5071371;28;20044;-51
2024/01/07 03:46:17;;;;;;;21.40;11.17;;;4.90;99.90;;;6.82;67.53;97072.34;5071406;28;20036;-52
2024/01/07 03:48:45;;;;;;;24.90;12.10;;;5.00;99.90;;;6.83;67.40;97074.00;5071509;28;20059;-51
2024/01/07 03:51:13;;;;;;;21.17;11.13;;;4.90;99.90;;;6.76;67.22;97073.75;5071160;28;20396;-49
2024/01/07 03:53:41;;;;;;;18.30;11.60;;;4.90;99.90;;;6.79;67.31;97077.94;5069882;28;20051;-48
2024/01/07 03:56:08;;;;;;;18.93;11.13;;;4.90;99.90;;;6.85;67.08;97079.97;5071294;28;20041;-49
2024/01/07 03:58:36;;;;;;;20.47;11.83;;;5.00;99.90;;;6.87;66.63;97073.53;5071022;28;20052;-51
2024/01/07 04:01:04;;;;;;;20.93;11.90;;;5.00;99.90;;;6.87;66.80;97081.47;5071063;28;20550;-48
2024/01/07 04:03:32;;;;;;;18.70;11.13;;;5.00;99.90;;;6.86;66.87;97078.97;5071016;28;20495;-51
2024/01/07 04:06:00;;;;;;;18.37;11.17;;;5.00;99.90;;;6.88;66.74;97071.72;5070964;28;20045;-50
2024/01/07 04:08:28;;;;;;;17.43;10.17;;;5.00;99.90;;;6.92;66.57;97072.25;5070580;28;20052;-53
2024/01/07 04:10:56;;;;;;;17.80;10.13;;;5.10;99.90;;;6.95;66.91;97082.53;5070694;28;20459;-53
2024/01/07 04:13:23;;;;;;;17.30;9.83;;;5.10;99.90;;;6.87;66.75;97084.13;5070826;28;20052;-53
2024/01/07 04:15:51;;;;;;;18.33;10.40;;;5.00;99.90;;;6.87;66.60;97085.94;5070724;28;20045;-49
2024/01/07 04:18:19;;;;;;;17.00;9.87;;;4.90;99.90;;;6.83;67.00;97082.78;5071012;28;20389;-52
2024/01/07 04:20:46;;;;;;;17.97;10.70;;;4.90;99.90;;;6.82;66.58;97089.03;5069519;28;20056;-50
2024/01/07 04:23:14;;;;;;;16.03;10.87;;;4.90;99.90;;;6.81;66.33;97083.91;5070780;28;20059;-52
2024/01/07 04:25:44;;;;;;;22.63;11.23;;;4.90;99.90;;;6.79;66.67;97089.34;5069520;28;20726;-54
2024/01/07 04:28:11;;;;;;;20.10;11.03;;;4.90;99.90;;;6.77;66.54;97093.97;5069489;28;20051;-50
2024/01/07 04:30:39;;;;;;;19.47;11.13;;;4.90;99.90;;;6.74;66.61;97094.25;5068344;28;20052;-50
2024/01/07 04:33:07;;;;;;;18.57;10.63;;;4.80;99.90;;;6.69;66.24;97088.59;5070763;28;20067;-51
2024/01/07 04:35:35;;;;;;;18.47;10.53;;;4.80;99.90;;;6.72;66.60;97100.69;5069532;28;20052;-52
2024/01/07 04:38:03;;;;;;;19.33;11.03;;;4.90;99.90;;;6.74;66.62;97099.53;5070724;28;20037;-50
2024/01/07 04:40:31;;;;;;;21.23;10.63;;;4.90;99.90;;;6.78;66.57;97102.72;5070442;28;20085;-53
2024/01/07 04:42:58;;;;;;;20.23;11.67;;;4.90;99.90;;;6.78;66.40;97108.00;5070607;28;20411;-50
2024/01/07 04:45:26;;;;;;;19.60;10.53;;;4.90;99.90;;;6.80;66.94;97106.03;5070627;28;20044;-52
2024/01/07 04:47:54;;;;;;;18.30;10.90;;;4.90;99.90;;;6.75;66.51;97109.16;5068695;28;20049;-52
2024/01/07 04:50:21;;;;;;;20.43;10.87;;;4.90;99.90;;;6.78;66.61;97122.06;5068688;28;20049;-52
2024/01/07 04:52:49;;;;;;;15.87;10.50;;;4.90;99.90;;;6.82;66.82;97114.66;5069098;28;20053;-50
2024/01/07 04:55:16;;;;;;;19.47;11.33;;;4.90;99.90;;;6.82;66.06;97112.03;5070454;28;20041;-50
2024/01/07 04:57:44;;;;;;;22.03;17.00;;;4.90;99.90;;;6.84;66.00;97115.34;5070516;28;20519;-53
2024/01/07 05:00:12;;;;;;;19.77;10.60;;;5.00;99.90;;;6.82;66.46;97115.50;5070429;28;20411;-52
2024/01/07 05:02:40;;;;;;;16.83;10.47;;;4.90;99.90;;;6.82;66.65;97117.31;5070285;28;20036;-51
2024/01/07 05:05:09;;;;;;;19.83;9.77;;;5.00;99.90;;;6.82;66.61;97112.03;5062173;28;20044;-50
2024/01/07 05:07:37;;;;;;;19.10;10.13;;;4.90;99.90;;;6.76;66.04;97112.63;5070478;28;20053;-52
2024/01/07 05:10:06;;;;;;;17.33;9.57;;;4.90;99.90;;;6.78;66.43;97115.94;5068503;28;20040;-49
2024/01/07 05:12:33;;;;;;;17.50;9.30;;;4.90;99.90;;;6.79;66.21;97117.63;5070334;28;20045;-49
2024/01/07 05:15:01;;;;;;;16.77;11.07;;;4.90;99.90;;;6.81;66.44;97119.13;5068507;28;20052;-52
2024/01/07 05:17:29;;;;;;;15.33;9.17;;;5.00;99.90;;;6.81;66.11;97124.44;5070266;28;20040;-49
2024/01/07 05:19:57;;;;;;;14.60;9.77;;;4.90;99.90;;;6.77;66.50;97136.28;5070101;28;20044;-50
2024/01/07 05:22:25;;;;;;;16.47;9.10;;;4.90;99.90;;;6.67;66.51;97123.13;5070402;28;20231;-50
2024/01/07 05:24:52;;;;;;;15.83;10.33;;;4.80;99.90;;;6.68;65.97;97127.44;5068304;28;20048;-51
2024/01/07 05:27:20;;;;;;;13.90;8.87;;;4.80;99.90;;;6.64;66.39;97126.06;5070304;28;20040;-52
2024/01/07 05:29:47;;;;;;;13.03;9.50;;;4.80;99.90;;;6.57;66.35;97127.66;5069956;28;20427;-51
2024/01/07 05:32:15;;;;;;;15.67;9.70;;;4.70;99.90;;;6.48;67.05;97133.84;5068451;28;20040;-50
2024/01/07 05:34:43;;;;;;;15.30;10.27;;;4.70;99.90;;;6.52;66.93;97129.09;5070105;28;20045;-52
2024/01/07 05:37:10;;;;;;;14.50;8.37;;;4.70;99.90;;;6.49;66.43;97131.03;5070766;28;20496;-49
2024/01/07 05:39:38;;;;;;;16.10;8.37;;;4.70;99.90;;;6.49;66.46;97136.34;5070358;28;20048;-50
2024/01/07 05:42:06;;;;;;;16.73;9.07;;;4.70;99.90;;;6.50;67.17;97139.81;5072038;28;20060;-50
2024/01/07 05:44:33;;;;;;;17.97;9.53;;;4.70;99.90;;;6.48;66.90;97139.13;5074095;28;20044;-49
2024/01/07 05:47:01;;;;;;;14.47;9.00;;;4.70;99.90;;;6.48;66.89;97141.75;5073667;28;20412;-51
2024/01/07 05:49:29;;;;;;;14.83;9.07;;;4.70;99.90;;;6.53;66.91;97142.13;5073640;28;20052;-50
2024/01/07 05:51:57;;;;;;;14.10;8.30;;;4.80;99.90;;;6.53;66.78;97143.94;5073174;28;20060;-50
2024/01/07 05:54:24;;;;;;;15.10;9.20;;;4.80;99.90;;;6.54;66.99;97146.47;5073590;28;20044;-49
2024/01/07 05:56:53;;;;;;;13.50;7.93;;;4.70;99.90;;;6.53;66.90;97151.88;5073434;28;20055;-49
2024/01/07 05:59:21;;;;;;;14.77;8.90;;;4.70;99.90;;;6.45;67.08;97160.56;5073601;28;20044;-50
2024/01/07 06:01:49;;;;;;;19.03;9.07;;;4.60;99.90;;;6.48;66.99;97152.34;5072853;28;20433;-48
2024/01/07 06:04:16;;;;;;;16.43;9.33;;;4.70;99.90;;;6.45;66.84;97152.63;5073303;28;20498;-49
2024/01/07 06:06:44;;;;;;;14.90;9.20;;;4.60;99.90;;;6.49;66.28;97164.56;5071716;28;20052;-49
2024/01/07 06:09:12;;;;;;;14.83;9.47;;;4.70;99.90;;;6.54;66.40;97157.03;5073403;28;20203;-49
2024/01/07 06:11:39;;;;;;;12.20;8.00;;;4.80;99.90;;;6.54;66.49;97164.97;5071721;28;20419;-48
2024/01/07 06:14:07;;;;;;;12.57;7.97;;;4.80;99.90;;;6.58;66.65;97162.88;5072832;28;20523;-48
2024/01/07 06:16:34;;;;;;;13.43;8.77;;;4.80;99.90;;;6.61;66.54;97167.84;5073478;28;20040;-49
2024/01/07 06:19:02;;;;;;;15.37;9.17;;;4.80;99.90;;;6.65;66.85;97166.56;5073003;28;20040;-51
2024/01/07 06:21:30;;;;;;;17.57;10.17;;;4.90;99.90;;;6.64;66.66;97168.38;5072726;28;20043;-51
2024/01/07 06:23:57;;;;;;;13.50;10.00;;;4.90;99.90;;;6.63;66.68;97174.66;5072827;28;20055;-52
2024/01/07 06:26:25;;;;;;;14.63;8.57;;;4.90;99.90;;;6.55;66.40;97168.44;5073115;28;20052;-50
2024/01/07 06:28:53;;;;;;;13.97;9.87;;;4.70;99.90;;;6.49;66.64;97170.72;5072654;28;20049;-53
2024/01/07 06:31:21;;;;;;;12.63;9.27;;;4.70;99.90;;;6.46;66.45;97176.28;5070809;28;20059;-49
2024/01/07 06:33:48;;;;;;;15.77;9.73;;;4.60;99.90;;;6.41;66.68;97178.53;5072653;28;20083;-50
2024/01/07 06:36:16;;;;;;;18.27;10.50;;;4.60;99.90;;;6.43;66.31;97178.38;5071381;28;20036;-51
2024/01/07 06:38:44;;;;;;;14.90;8.97;;;4.60;99.90;;;6.47;66.93;97180.56;5072863;28;20504;-53
2024/01/07 06:41:12;;;;;;;13.00;8.27;;;4.70;99.90;;;6.47;66.18;97183.22;5072184;28;20041;-51
2024/01/07 06:43:40;;;;;;;14.77;8.73;;;4.70;99.90;;;6.49;66.36;97191.00;5072454;28;20040;-49
2024/01/07 06:46:08;;;;;;;13.43;8.43;;;4.70;99.90;;;6.52;66.22;97190.72;5072658;28;20044;-50
2024/01/07 06:48:36;;;;;;;15.63;9.50;;;4.70;99.90;;;6.42;66.72;97190.78;5072725;28;20044;-49
2024/01/07 06:51:04;;;;;;;15.70;9.37;;;4.70;99.90;;;6.42;66.39;97198.72;5072050;28;20048;-52
2024/01/07 06:53:31;;;;;;;13.23;9.37;;;4.60;99.90;;;6.45;66.08;97200.22;5072152;28;20397;-50
2024/01/07 06:55:59;;;;;;;15.53;10.10;;;4.60;99.90;;;6.43;66.19;97200.34;5072385;28;20048;-50
2024/01/07 06:58:26;;;;;;;13.40;9.33;;;4.60;99.90;;;6.46;66.20;97201.91;5072432;28;20041;-51
2024/01/07 07:00:54;;;;;;;14.63;9.57;;;4.70;99.90;;;6.46;66.65;97204.53;5071992;28;20048;-49
2024/01/07 07:03:22;;;;;;;14.37;10.07;;;4.70;99.90;;;6.49;66.56;97214.81;5072256;28;20041;-55
2024/01/07 07:05:49;;;;;;;14.73;9.33;;;4.70;99.90;;;6.47;66.22;97219.41;5072406;28;20053;-53
2024/01/07 07:08:17;;;;;;;15.13;9.83;;;4.70;99.90;;;6.44;66.38;97217.91;5071321;28;20072;-53
2024/01/07 07:10:45;;;;;;;13.20;8.13;;;4.70;99.90;;;6.45;66.18;97224.03;5071935;28;20075;-51
2024/01/07 07:13:12;;;;;;;17.30;11.37;;;4.70;99.90;;;6.41;66.14;97225.28;5072174;28;20447;-53
2024/01/07 07:15:40;;;;;;;16.00;11.20;;;4.60;99.90;;;6.44;66.03;97227.66;5072157;28;20044;-53
2024/01/07 07:18:08;;;;;;;14.67;8.23;;;4.70;99.90;;;6.45;66.24;97232.78;5071821;28;20040;-54
2024/01/07 07:20:36;;;;;;;15.87;9.17;;;4.70;99.90;;;6.48;65.78;97234.31;5071390;28;20047;-51
2024/01/07 07:23:03;;;;;;;13.73;8.93;;;4.70;99.90;;;6.48;66.29;97235.16;5071598;28;20048;-54
2024/01/07 07:25:31;;;;;;;15.47;9.97;;;4.80;99.80;;;6.43;66.18;97240.03;5071891;28;20044;-50
2024/01/07 07:27:59;;;;;;;13.47;9.70;;;4.70;99.90;;;6.46;66.11;97241.56;5068348;28;20074;-53
2024/01/07 07:30:26;;;;;;;13.13;9.17;;;4.80;99.90;;;6.48;65.97;97244.91;5071686;28;20488;-53
2024/01/07 07:32:54;;;;;;;14.90;8.87;;;4.70;99.90;;;6.48;66.20;97253.66;5071776;28;20105;-49
2024/01/07 07:35:22;;;;;;;13.53;9.67;;;4.70;99.80;;;6.48;65.79;97258.94;5063758;28;20059;-53
2024/01/07 07:37:49;;;;;;;16.63;10.50;;;4.80;99.90;;;6.39;65.80;97246.59;5071838;28;20424;-51
2024/01/07 07:40:17;;;;;;;15.87;10.97;;;4.70;97.20;;;6.35;65.53;97260.25;5071361;28;20044;-52
2024/01/07 07:42:45;;;;;;;14.33;10.00;;;4.60;98.40;;;6.35;65.95;97271.66;5071544;28;20427;-54
2024/01/07 07:45:12;;;;;;;13.20;9.00;;;4.60;98.30;;;6.31;65.64;97267.63;5071299;28;20045;-53
2024/01/07 07:47:44;;;;;;;16.70;10.70;;;4.60;96.80;;;6.31;65.37;97270.28;5071430;28;20076;-52
2024/01/07 07:50:12;;;;;;;15.73;10.87;;;4.70;97.00;;;6.32;65.64;97285.19;5069453;28;20051;-52
2024/01/07 07:52:43;;;;;;;13.67;9.67;;;4.70;97.00;;;6.33;65.52;97278.06;5071663;28;20044;-53
2024/01/07 07:55:11;;;;;;;14.70;9.50;;;4.80;94.60;;;6.30;65.55;97289.75;5071460;28;20055;-51
2024/01/07 07:57:39;;;;;;;17.30;9.87;;;4.70;94.80;;;6.29;65.69;97283.63;5071507;28;20040;-51
2024/01/07 08:00:08;;;;;;;14.57;8.50;;;4.70;94.60;;;6.28;65.39;97289.06;5070699;28;20470;-52
2024/01/07 08:02:35;;;;;;;13.17;8.40;;;4.70;93.10;;;6.31;64.96;97291.44;5071337;28;20048;-52
2024/01/07 08:05:03;;;;;;;15.33;8.77;;;4.70;93.80;;;6.26;64.60;97289.22;5069608;28;20415;-54
2024/01/07 08:07:31;;;;;;;13.13;9.50;;;4.60;92.70;;;6.26;64.81;97293.66;5068683;28;20056;-52
2024/01/07 08:09:59;;;;;;;15.23;10.60;;;4.60;92.70;;;6.27;64.98;97305.91;5069832;28;20480;-51
2024/01/07 08:12:26;;;;;;;13.50;10.03;;;4.70;91.90;;;6.23;64.32;97302.72;5062556;28;20499;-52
2024/01/07 08:14:54;;;;;;;13.40;9.50;;;4.70;91.80;;;6.21;64.45;97307.31;5070337;28;20048;-53
2024/01/07 08:17:22;;;;;;;14.33;9.33;;;4.70;90.60;;;6.11;64.42;97304.69;5070123;28;20428;-55
2024/01/07 08:19:50;;;;;;;13.07;8.70;;;4.60;89.10;;;6.08;63.94;97314.69;5068247;28;20427;-52
2024/01/07 08:22:18;;;;;;;13.60;7.53;;;4.60;89.80;;;6.07;64.00;97313.88;5067766;28;20044;-53
2024/01/07 08:24:46;;;;;;;13.90;8.27;;;4.60;90.30;;;6.08;63.99;97312.06;5067409;28;20520;-54
2024/01/07 08:27:13;;;;;;;9.40;7.00;;;4.70;90.10;;;6.08;64.06;97312.88;5068657;28;20496;-52
2024/01/07 08:29:44;;;;;;;8.93;6.60;;;4.60;88.00;;;6.02;63.67;97307.34;5069820;28;20059;-54
2024/01/07 08:32:12;;;;;;;13.00;7.53;;;4.50;88.10;;;6.00;63.38;97317.22;5069120;28;20048;-51
2024/01/07 08:34:40;;;;;;;9.73;6.57;;;4.50;88.70;;;6.02;64.16;97317.91;5069505;28;20059;-53
2024/01/07 08:37:09;;;;;;;8.33;5.77;;;4.60;87.90;;;5.98;63.29;97317.34;5070277;28;20503;-55
2024/01/07 08:39:37;;;;;;;6.93;4.70;;;4.60;86.50;;;6.00;63.20;97322.50;5069317;28;20522;-52
2024/01/07 08:42:05;;;;;;;7.53;5.57;;;4.50;86.20;;;6.06;63.71;97319.28;5069665;28;20049;-50
2024/01/07 08:44:32;;;;;;;8.10;4.53;;;4.60;87.30;;;6.11;63.69;97325.00;5067967;28;20067;-53
2024/01/07 08:47:00;;;;;;;8.03;5.30;;;4.60;86.10;;;6.10;62.82;97324.16;5068318;28;20132;-54
2024/01/07 08:49:29;;;;;;;11.33;6.57;;;4.70;85.30;;;6.10;62.80;97329.44;5061829;28;20097;-53
2024/01/07 08:51:57;;;;;;;11.07;7.77;;;4.70;86.50;;;6.17;63.59;97331.53;5069624;28;20048;-53
2024/01/07 08:54:25;;;;;;;22.97;11.47;;;4.70;86.30;;;6.20;62.92;97329.41;5069392;28;20052;-51
2024/01/07 08:56:53;;;;;;;14.83;7.57;;;4.70;86.70;;;6.16;62.75;97330.69;5070019;28;20055;-51
2024/01/07 08:59:20;;;;;;;10.10;6.27;;;4.60;85.20;;;6.16;63.31;97329.84;5069625;28;20041;-52
2024/01/07 09:01:48;;;;;;;10.33;5.43;;;4.70;86.10;;;6.18;62.60;97333.19;5069421;28;20048;-54
2024/01/07 09:04:17;;;;;;;10.60;6.97;;;4.70;84.50;;;6.15;62.23;97333.50;5069654;28;20415;-54
2024/01/07 09:06:45;;;;;;;12.93;7.60;;;4.70;84.30;;;6.17;62.79;97332.38;5069541;28;20036;-52
2024/01/07 09:09:13;;;;;;;11.17;7.13;;;4.60;85.20;;;6.19;62.99;97337.50;5069687;28;20048;-52
2024/01/07 09:11:40;;;;;;;9.13;6.47;;;4.60;86.10;;;6.15;62.33;97350.19;5067354;28;20048;-53
2024/01/07 09:14:08;;;;;;;11.10;7.70;;;4.60;84.70;;;6.21;62.57;97346.97;5067771;28;20538;-53
2024/01/07 09:16:35;;;;;;;9.87;6.87;;;4.60;86.00;;;6.21;62.40;97351.41;5070735;28;20048;-51
2024/01/07 09:19:03;;;;;;;8.40;6.33;;;4.50;85.40;;;6.21;62.32;97346.97;5071670;28;20037;-55
2024/01/07 09:21:31;;;;;;;11.43;7.67;;;4.50;85.70;;;6.17;62.06;97356.16;5073163;28;20037;-53
2024/01/07 09:23:59;;;;;;;11.17;7.43;;;4.50;86.20;;;6.14;61.60;97358.25;5073667;28;20036;-53
2024/01/07 09:26:27;;;;;;;12.53;7.37;;;4.50;86.80;;;6.19;62.45;97362.13;5072820;28;20045;-52
2024/01/07 09:28:54;;;;;;;11.60;8.27;;;4.50;88.10;;;6.22;62.24;97366.28;5073474;28;20083;-52
2024/01/07 09:31:22;;;;;;;12.70;8.10;;;4.60;87.30;;;6.20;61.79;97369.06;5054887;28;20051;-53
2024/01/07 09:33:50;;;;;;;12.00;7.50;;;4.60;86.80;;;6.17;61.92;97371.19;5073002;28;20491;-55
2024/01/07 09:36:17;;;;;;;12.97;8.30;;;4.50;86.40;;;6.10;62.25;97368.25;5073113;28;20040;-53
2024/01/07 09:38:56;;;;;;;11.60;6.63;;;4.40;86.80;;;6.10;61.94;97373.53;5072633;28;20044;-52
2024/01/07 09:41:24;;;;;;;11.60;6.70;;;4.40;87.50;;;6.10;62.16;97373.53;5072539;28;20056;-54
2024/01/07 09:43:53;;;;;;;11.43;7.17;;;4.40;87.10;;;6.10;62.03;97379.66;5071648;28;20041;-50
2024/01/07 09:46:23;;;;;;;9.20;6.30;;;4.40;86.60;;;6.07;61.44;97377.31;5071219;28;20052;-51
2024/01/07 09:48:50;;;;;;;10.90;6.77;;;4.40;84.70;;;6.05;61.52;97378.44;5073910;28;20518;-50
2024/01/07 09:51:23;;;;;;;8.47;5.93;;;4.40;84.80;;;5.99;61.35;97379.81;5073364;28;20044;-54
2024/01/07 09:53:58;;;;;;;10.97;7.60;;;4.40;84.70;;;6.02;61.20;97381.34;5073820;28;20487;-54
2024/01/07 09:56:33;;;;;;;7.07;5.03;;;4.40;84.80;;;6.00;61.84;97376.19;5073673;28;20049;-53
2024/01/07 09:59:01;;;;;;;10.20;6.13;;;4.40;83.50;;;6.02;61.78;97376.88;5072348;28;20040;-54
2024/01/07 10:01:29;;;;;;;10.53;6.70;;;4.40;84.00;;;5.94;61.16;97366.13;5072167;28;20044;-52
2024/01/07 10:03:57;;;;;;;9.23;5.67;;;4.40;83.60;;;5.87;60.80;97373.81;5072604;28;20032;-54
2024/01/07 10:06:25;;;;;;;9.43;5.73;;;4.40;83.10;;;5.87;61.13;97379.09;5073507;28;20063;-54
2024/01/07 10:08:53;;;;;;;8.73;5.90;;;4.30;84.30;;;5.90;61.28;97376.16;5071577;28;20056;-54
2024/01/07 10:11:22;;;;;;;11.13;6.70;;;4.40;85.00;;;5.85;61.50;97383.66;5088192;28;20049;-54
2024/01/07 10:13:53;;;;;;;9.03;5.77;;;4.30;83.50;;;5.87;60.90;97386.16;5073535;28;20036;-54
2024/01/07 10:16:21;;;;;;;10.23;7.03;;;4.20;85.10;;;5.86;61.62;97381.84;5070421;28;20052;-53
2024/01/07 10:18:49;;;;;;;10.60;7.63;;;4.20;83.50;;;5.81;60.70;97381.44;5073487;28;20040;-51
2024/01/07 10:21:17;;;;;;;9.90;7.17;;;4.10;85.70;;;5.81;61.29;97382.25;5072644;28;20041;-54
2024/01/07 10:23:45;;;;;;;10.07;7.43;;;4.10;84.40;;;5.76;60.92;97386.28;5071426;28;20424;-54
2024/01/07 10:26:13;;;;;;;10.03;6.60;;;4.10;83.50;;;5.75;60.92;97388.09;5071658;28;20048;-51